Time;durP1;ratioP1;P1;durP2;ratioP2;P2;SDS_P1;SDS_P2;PMS_P1;PMS_P2;Temp;Humidity;BMP_temperature;BMP_pressure;BME280_temperature;BME280_humidity;BME280_pressure;Samples;Min_cycle;Max_cycle;Signal;HPM_P1;HPM_P2
2021/03/23 00:02:26;;;;;;;89.40;38.20;;;;;;;0.60;66.97;99067.12;2135071;83;21153;-76
2021/03/23 00:05:27;;;;;;;73.40;34.03;;;;;;;0.59;67.00;99065.77;2134697;83;21158;-76
2021/03/23 00:08:29;;;;;;;72.20;33.10;;;;;;;0.57;67.02;99063.11;2135015;83;21408;-76
2021/03/23 00:11:30;;;;;;;79.17;35.70;;;;;;;0.57;67.08;99059.66;2135000;83;21443;-77
2021/03/23 00:14:32;;;;;;;83.97;37.77;;;;;;;0.56;67.15;99060.45;2134825;83;21455;-77
2021/03/23 00:17:33;;;;;;;84.67;37.73;;;;;;;0.57;67.11;99057.08;2135066;83;21142;-78
2021/03/23 00:20:34;;;;;;;82.27;37.63;;;;;;;0.61;67.12;99059.91;2134499;83;21149;-76
2021/03/23 00:23:36;;;;;;;76.53;38.07;;;;;;;0.61;67.09;99059.91;2134097;83;21380;-77
2021/03/23 00:26:38;;;;;;;76.90;36.60;;;;;;;0.64;66.92;99060.47;2134239;83;21263;-77
2021/03/23 00:29:39;;;;;;;79.50;35.27;;;;;;;0.69;66.82;99063.28;2134723;83;21134;-77
2021/03/23 00:32:40;;;;;;;78.27;35.47;;;;;;;0.70;66.70;99062.08;2134920;83;21157;-77
2021/03/23 00:35:41;;;;;;;87.03;36.27;;;;;;;0.69;66.53;99058.14;2134285;83;21267;-76
2021/03/23 00:38:42;;;;;;;81.23;36.23;;;;;;;0.70;66.45;99065.05;2134860;83;21275;-76
2021/03/23 00:41:43;;;;;;;77.40;34.67;;;;;;;0.69;66.44;99062.89;2134528;83;21170;-76
2021/03/23 00:44:45;;;;;;;74.47;35.47;;;;;;;0.73;66.36;99066.50;2134420;83;21268;-76
2021/03/23 00:47:46;;;;;;;73.33;34.27;;;;;;;0.77;66.59;99063.30;2133996;83;21236;-76
2021/03/23 00:50:47;;;;;;;80.10;35.40;;;;;;;0.82;66.14;99057.59;2134655;82;21189;-76
2021/03/23 00:53:48;;;;;;;74.77;32.13;;;;;;;0.83;66.12;99050.38;2135160;83;21193;-76
2021/03/23 00:56:49;;;;;;;78.77;35.00;;;;;;;0.82;65.96;99055.43;2135516;83;21467;-77
2021/03/23 00:59:51;;;;;;;76.33;35.73;;;;;;;0.82;65.89;99052.45;2134905;83;21138;-76
2021/03/23 01:02:52;;;;;;;78.73;34.97;;;;;;;0.86;65.80;99062.09;2135502;83;21200;-76
2021/03/23 01:05:53;;;;;;;77.43;34.20;;;;;;;0.90;65.71;99055.06;2135000;83;21407;-76
2021/03/23 01:08:54;;;;;;;75.90;34.87;;;;;;;0.91;65.64;99050.81;2134535;83;21173;-76
2021/03/23 01:11:55;;;;;;;80.03;36.47;;;;;;;0.91;65.62;99050.41;2134128;83;21102;-76
2021/03/23 01:14:57;;;;;;;80.17;35.00;;;;;;;0.93;65.51;99047.92;2134290;83;21153;-77
2021/03/23 01:17:58;;;;;;;71.10;33.87;;;;;;;0.93;65.43;99036.35;2134623;83;21169;-76
2021/03/23 01:20:59;;;;;;;75.47;33.73;;;;;;;0.92;65.47;99038.04;2135284;83;21892;-77
2021/03/23 01:24:00;;;;;;;74.60;33.17;;;;;;;0.93;65.40;99033.78;2134454;83;21105;-76
2021/03/23 01:27:02;;;;;;;75.60;32.23;;;;;;;0.93;65.30;99032.50;2134376;83;21256;-76
2021/03/23 01:30:03;;;;;;;71.20;31.20;;;;;;;0.96;65.32;99037.80;2134779;83;21142;-76
2021/03/23 01:33:04;;;;;;;73.30;33.70;;;;;;;0.95;65.27;99038.20;2134872;83;21525;-76
2021/03/23 01:36:05;;;;;;;73.43;33.43;;;;;;;0.96;65.29;99040.37;2134778;83;21149;-76
2021/03/23 01:39:06;;;;;;;75.50;34.00;;;;;;;0.97;65.17;99038.28;2134913;83;21292;-76
2021/03/23 01:42:08;;;;;;;76.30;33.90;;;;;;;0.97;65.20;99037.39;2134494;83;21153;-77
2021/03/23 01:45:09;;;;;;;71.83;32.17;;;;;;;0.94;65.22;99035.55;2134525;83;21113;-76
2021/03/23 01:48:10;;;;;;;72.33;31.77;;;;;;;0.92;65.30;99034.58;2134396;83;21146;-76
2021/03/23 01:51:11;;;;;;;73.83;32.20;;;;;;;0.92;65.31;99034.58;2114561;82;21276;-76
2021/03/23 01:54:12;;;;;;;76.40;34.07;;;;;;;0.93;65.38;99036.35;2110694;84;21141;-76
2021/03/23 01:57:14;;;;;;;79.50;33.17;;;;;;;0.91;65.33;99036.27;2110785;84;21439;-76
2021/03/23 02:00:18;;;;;;;79.93;32.97;;;;;;;0.89;65.27;99040.84;2110713;84;21177;-76
2021/03/23 02:03:19;;;;;;;66.50;33.10;;;;;;;0.90;65.43;99037.48;2110606;84;21300;-76
2021/03/23 02:06:24;;;;;;;73.03;33.63;;;;;;;0.94;65.34;99040.69;2110715;84;21137;-77
2021/03/23 02:09:25;;;;;;;66.63;30.30;;;;;;;1.00;65.36;99043.58;2110722;84;21277;-76
2021/03/23 02:12:27;;;;;;;64.40;30.60;;;;;;;1.02;65.22;99038.12;2110897;84;21181;-77
2021/03/23 02:15:28;;;;;;;61.73;30.37;;;;;;;1.04;65.22;99036.52;2111212;84;21300;-77
2021/03/23 02:18:29;;;;;;;65.47;31.70;;;;;;;1.06;65.02;99040.45;2110824;83;21153;-76
2021/03/23 02:21:30;;;;;;;69.87;31.77;;;;;;;1.09;64.98;99034.17;2110579;84;21292;-77
2021/03/23 02:24:34;;;;;;;81.00;31.90;;;;;;;1.12;64.87;99034.33;2110667;84;21280;-76
2021/03/23 02:27:35;;;;;;;64.92;31.12;;;;;;;1.12;64.81;99034.33;2110653;84;21292;-76
2021/03/23 02:30:40;;;;;;;66.27;30.50;;;;;;;1.13;64.68;99036.98;2110833;84;21284;-77
2021/03/23 02:33:41;;;;;;;56.18;28.32;;;;;;;1.13;64.65;99042.13;2110552;84;21303;-76
2021/03/23 02:36:42;;;;;;;58.33;29.80;;;;;;;1.12;64.70;99039.08;2110825;84;21268;-76
2021/03/23 02:39:43;;;;;;;63.10;29.87;;;;;;;1.11;64.76;99033.45;2110757;84;21290;-76
2021/03/23 02:42:45;;;;;;;63.20;28.47;;;;;;;1.15;64.77;99034.09;2110558;84;21152;-76
2021/03/23 02:45:46;;;;;;;67.60;30.83;;;;;;;1.18;64.58;99035.94;2110969;84;21121;-76
2021/03/23 02:48:47;;;;;;;68.73;29.47;;;;;;;1.13;64.41;99033.13;2110884;84;21291;-76
2021/03/23 02:51:48;;;;;;;65.33;30.70;;;;;;;1.12;64.36;99031.36;2132817;82;21262;-77
2021/03/23 02:54:51;;;;;;;72.67;30.07;;;;;;;1.11;64.33;99028.31;2134348;83;21280;-77
2021/03/23 02:57:53;;;;;;;65.80;28.77;;;;;;;1.11;64.36;99026.14;2134499;83;21329;-76
2021/03/23 03:00:55;;;;;;;65.33;29.70;;;;;;;1.11;64.53;99028.72;2134434;83;21545;-77
2021/03/23 03:03:57;;;;;;;69.70;29.63;;;;;;;1.11;64.41;99027.02;2134687;83;21374;-76
2021/03/23 03:06:58;;;;;;;62.03;27.37;;;;;;;1.10;64.42;99023.97;2134510;83;21280;-76
2021/03/23 03:09:59;;;;;;;70.67;31.00;;;;;;;1.11;64.41;99030.00;2134601;83;21111;-76
2021/03/23 03:13:01;;;;;;;67.77;30.00;;;;;;;1.07;64.31;99030.24;2134730;83;21146;-77
2021/03/23 03:16:03;;;;;;;73.60;30.27;;;;;;;1.06;64.41;99031.05;2133849;83;21533;-76
2021/03/23 03:19:05;;;;;;;69.30;31.07;;;;;;;1.07;64.33;99028.95;2134359;83;21153;-76
2021/03/23 03:22:06;;;;;;;61.60;28.73;;;;;;;1.09;64.33;99032.48;2134062;83;21242;-77
2021/03/23 03:25:07;;;;;;;66.63;29.70;;;;;;;1.09;64.27;99032.48;2134073;83;21161;-76
2021/03/23 03:28:08;;;;;;;63.10;29.07;;;;;;;1.09;64.26;99041.48;2134643;83;21393;-77
2021/03/23 03:31:09;;;;;;;62.30;29.70;;;;;;;1.10;64.30;99038.52;2114212;83;21141;-76
2021/03/23 03:34:12;;;;;;;62.17;27.90;;;;;;;1.10;64.33;99038.11;2133333;83;21270;-76
2021/03/23 03:37:13;;;;;;;54.47;28.37;;;;;;;1.10;64.28;99045.83;2134032;83;21110;-75
2021/03/23 03:40:14;;;;;;;58.23;27.87;;;;;;;1.09;64.27;99043.17;2133861;83;21148;-74
2021/03/23 03:43:15;;;;;;;58.20;27.40;;;;;;;1.03;64.33;99044.14;2134318;83;21256;-76
2021/03/23 03:46:16;;;;;;;56.40;27.10;;;;;;;1.02;64.39;99043.66;2134496;83;21259;-77
2021/03/23 03:49:17;;;;;;;60.13;27.30;;;;;;;1.01;64.39;99041.89;2134593;83;21590;-76
2021/03/23 03:52:18;;;;;;;58.27;27.30;;;;;;;1.00;64.42;99043.98;2134690;83;21282;-76
2021/03/23 03:55:22;;;;;;;57.97;27.10;;;;;;;0.97;64.50;99039.97;2134842;83;21156;-76
2021/03/23 03:58:23;;;;;;;63.43;27.57;;;;;;;0.96;64.45;99041.66;2133914;83;21243;-76
2021/03/23 04:01:24;;;;;;;54.53;26.03;;;;;;;0.98;64.44;99041.33;2133515;83;21126;-77
2021/03/23 04:04:25;;;;;;;61.80;27.70;;;;;;;0.95;64.44;99034.75;2133834;83;21235;-77
2021/03/23 04:07:27;;;;;;;61.00;28.23;;;;;;;0.92;64.46;99035.88;2134219;83;21161;-76
2021/03/23 04:10:28;;;;;;;51.77;24.43;;;;;;;0.91;64.52;99039.24;2134138;83;21140;-77
2021/03/23 04:13:29;;;;;;;58.20;26.37;;;;;;;0.91;64.55;99028.56;2133865;83;21275;-76
2021/03/23 04:16:30;;;;;;;55.87;24.30;;;;;;;0.93;64.54;99034.66;2134140;83;21257;-76
2021/03/23 04:19:31;;;;;;;56.03;24.80;;;;;;;0.95;64.52;99037.31;2134332;83;21156;-77
2021/03/23 04:22:32;;;;;;;54.27;25.10;;;;;;;0.97;64.44;99041.25;2134109;83;21242;-76
2021/03/23 04:25:33;;;;;;;58.23;24.50;;;;;;;0.95;64.41;99036.91;2133845;83;21141;-76
2021/03/23 04:28:34;;;;;;;52.67;24.27;;;;;;;0.94;64.46;99038.13;2132618;83;21113;-76
2021/03/23 04:31:35;;;;;;;48.43;22.67;;;;;;;0.93;64.44;99039.80;2133112;83;21134;-77
2021/03/23 04:34:36;;;;;;;55.23;23.63;;;;;;;0.93;64.40;99035.06;2132407;83;21152;-76
2021/03/23 04:37:37;;;;;;;44.30;21.30;;;;;;;0.95;64.52;99036.03;2132249;83;21271;-76
2021/03/23 04:40:38;;;;;;;50.43;24.10;;;;;;;0.95;64.29;99035.63;2132499;83;21263;-77
2021/03/23 04:43:39;;;;;;;57.47;26.93;;;;;;;0.94;64.30;99039.41;2131770;83;21149;-78
2021/03/23 04:46:41;;;;;;;55.07;26.40;;;;;;;0.93;64.38;99041.49;2133071;83;21373;-77
2021/03/23 04:49:42;;;;;;;63.47;28.13;;;;;;;0.92;64.46;99039.33;2131005;81;21593;-77
2021/03/23 04:52:43;;;;;;;56.30;26.53;;;;;;;0.94;64.33;99045.83;2133797;83;21268;-77
2021/03/23 04:55:44;;;;;;;51.63;23.87;;;;;;;0.94;64.38;99044.14;2133171;83;21574;-76
2021/03/23 04:58:45;;;;;;;59.67;26.37;;;;;;;0.94;64.43;99050.57;2135161;83;21149;-78
2021/03/23 05:01:46;;;;;;;52.43;25.63;;;;;;;0.95;64.34;99044.62;2135964;83;21137;-78
2021/03/23 05:04:47;;;;;;;65.73;25.83;;;;;;;1.01;64.25;99050.89;2133966;83;21129;-77
2021/03/23 05:07:48;;;;;;;49.07;23.63;;;;;;;1.05;64.26;99063.09;2134792;83;21144;-76
2021/03/23 05:10:50;;;;;;;51.80;24.53;;;;;;;1.10;64.24;99063.82;2135866;83;21249;-77
2021/03/23 05:13:51;;;;;;;64.63;26.80;;;;;;;1.16;64.12;99067.11;2134766;83;21472;-77
2021/03/23 05:16:52;;;;;;;58.90;27.13;;;;;;;1.22;63.97;99064.45;2134043;83;21140;-77
2021/03/23 05:19:53;;;;;;;56.17;26.43;;;;;;;1.28;63.80;99061.31;2133517;83;21307;-77
2021/03/23 05:22:54;;;;;;;56.87;25.80;;;;;;;1.33;63.68;99061.55;2133090;83;21145;-77
2021/03/23 05:29:33;;;;;;;53.47;25.10;;;;;;;1.44;63.52;99061.70;2135495;83;21018;-76
2021/03/23 05:32:34;;;;;;;51.87;24.83;;;;;;;1.52;63.34;99065.14;2135221;83;21647;-77
2021/03/23 05:35:35;;;;;;;57.70;25.43;;;;;;;1.58;63.47;99064.56;2135525;83;21584;-76
2021/03/23 05:38:37;;;;;;;58.17;25.57;;;;;;;1.66;63.15;99068.41;2109231;83;21279;-76
2021/03/23 05:41:40;;;;;;;54.33;23.80;;;;;;;1.73;63.08;99057.61;2135023;83;21142;-76
2021/03/23 05:44:41;;;;;;;55.63;22.70;;;;;;;1.84;62.95;99057.77;2134730;82;21426;-77
2021/03/23 05:47:43;;;;;;;51.50;22.43;;;;;;;1.89;62.42;99065.31;2135333;83;21284;-77
2021/03/23 05:50:44;;;;;;;49.43;22.47;;;;;;;1.94;62.57;99057.81;2134198;83;21142;-78
2021/03/23 05:53:45;;;;;;;47.07;21.27;;;;;;;1.99;62.01;99051.61;2130482;83;21281;-78
2021/03/23 05:56:46;;;;;;;49.00;22.30;;;;;;;2.01;61.97;99057.71;2130359;83;21264;-77
2021/03/23 05:59:48;;;;;;;67.50;28.40;;;;;;;2.03;62.15;99051.83;2130802;83;21279;-78
2021/03/23 06:02:49;;;;;;;67.37;30.00;;;;;;;2.11;61.81;99058.64;2131112;83;21277;-78
2021/03/23 06:05:50;;;;;;;67.97;30.97;;;;;;;2.25;61.90;99060.18;2130749;83;21274;-75
2021/03/23 06:08:51;;;;;;;61.63;27.63;;;;;;;2.43;61.15;99062.75;2130030;83;21299;-77
2021/03/23 06:11:53;;;;;;;52.13;24.17;;;;;;;2.49;61.02;99066.48;2130674;83;21565;-77
2021/03/23 06:14:54;;;;;;;48.93;23.00;;;;;;;2.55;60.92;99069.76;2131066;83;21260;-78
2021/03/23 06:17:55;;;;;;;49.20;21.50;;;;;;;2.64;60.75;99070.22;2132454;83;21251;-79
2021/03/23 06:20:57;;;;;;;46.93;22.70;;;;;;;2.75;60.64;99071.59;2131538;83;21150;-79
2021/03/23 06:23:58;;;;;;;40.43;21.20;;;;;;;2.88;60.55;99070.46;2131696;83;21263;-78
2021/03/23 06:26:59;;;;;;;43.57;20.57;;;;;;;3.01;60.39;99068.03;2132012;83;21780;-78
2021/03/23 06:30:00;;;;;;;45.90;21.10;;;;;;;3.10;59.76;99069.32;2131776;83;21136;-78
2021/03/23 06:33:02;;;;;;;43.03;20.03;;;;;;;3.05;58.95;99072.10;2131937;83;21256;-79
2021/03/23 06:36:03;;;;;;;40.20;19.43;;;;;;;3.06;59.47;99070.00;2131473;83;21254;-78
2021/03/23 06:39:04;;;;;;;42.67;19.57;;;;;;;3.15;59.13;99070.41;2133187;83;21106;-77
2021/03/23 06:42:06;;;;;;;43.97;19.13;;;;;;;3.18;58.95;99060.22;2133075;83;21647;-79
2021/03/23 06:45:07;;;;;;;38.00;19.57;;;;;;;3.28;58.61;99053.77;2133026;83;21427;-77
2021/03/23 06:48:08;;;;;;;39.67;19.87;;;;;;;3.28;58.88;99058.05;2132214;83;21267;-78
2021/03/23 06:51:09;;;;;;;39.10;18.83;;;;;;;3.26;58.42;99062.27;2131584;83;21298;-77
2021/03/23 06:54:10;;;;;;;41.90;17.27;;;;;;;3.20;58.43;99065.05;2131079;83;21920;-78
2021/03/23 06:57:12;;;;;;;39.90;18.40;;;;;;;3.19;58.53;99076.17;2132288;83;21149;-79
2021/03/23 07:00:13;;;;;;;42.60;20.13;;;;;;;3.28;58.76;99076.11;2132482;83;21230;-79
2021/03/23 07:03:14;;;;;;;45.33;19.03;;;;;;;3.39;58.05;99071.01;2131955;83;21284;-78
2021/03/23 07:06:16;;;;;;;40.03;19.83;;;;;;;3.43;58.44;99060.00;2132420;83;21826;-78
2021/03/23 07:09:19;;;;;;;44.27;20.20;;;;;;;3.58;57.90;99071.02;2132938;83;21280;-79
2021/03/23 07:12:20;;;;;;;40.23;19.83;;;;;;;3.69;57.39;99074.06;2131955;83;21267;-78
2021/03/23 07:15:21;;;;;;;47.67;22.23;;;;;;;3.72;57.86;99083.22;2131097;83;21327;-78
2021/03/23 07:18:22;;;;;;;33.80;17.10;;;;;;;3.80;57.54;99085.72;2131186;83;21267;-78
2021/03/23 07:21:23;;;;;;;39.03;19.53;;;;;;;3.79;57.48;99086.13;2131522;83;21205;-79
2021/03/23 07:24:30;;;;;;;39.30;19.93;;;;;;;4.05;57.51;99086.33;2132047;83;21416;-79
2021/03/23 07:27:27;;;;;;;38.07;18.47;;;;;;;4.36;56.49;99084.61;2131515;83;21264;-78
2021/03/23 07:30:29;;;;;;;44.40;24.57;;;;;;;4.68;56.57;99075.53;2132711;83;21131;-78
2021/03/23 07:33:30;;;;;;;31.87;19.37;;;;;;;5.16;54.59;99080.38;2131715;83;21279;-78
2021/03/23 07:36:31;;;;;;;30.00;16.40;;;;;;;5.34;53.35;99075.02;2132607;83;21132;-81
2021/03/23 07:39:33;;;;;;;39.27;18.90;;;;;;;5.36;53.87;99079.84;2132845;83;21338;-78
2021/03/23 07:42:34;;;;;;;29.97;16.03;;;;;;;5.40;53.38;99090.77;2131620;83;21246;-78
2021/03/23 07:45:35;;;;;;;32.07;16.17;;;;;;;5.38;52.88;99089.83;2131343;83;21125;-78
2021/03/23 07:48:36;;;;;;;35.73;16.00;;;;;;;5.40;53.59;99085.18;2131706;83;21255;-79
2021/03/23 07:51:38;;;;;;;34.27;16.70;;;;;;;5.39;52.94;99096.36;2133005;83;21153;-80
2021/03/23 07:54:39;;;;;;;26.80;14.73;;;;;;;5.25;53.21;99090.22;2135389;83;21314;-79
2021/03/23 07:57:40;;;;;;;27.60;15.97;;;;;;;5.22;52.92;99083.63;2135538;83;21129;-78
2021/03/23 08:00:42;;;;;;;32.07;15.97;;;;;;;5.22;53.29;99093.57;2135386;83;21624;-78
2021/03/23 08:03:44;;;;;;;39.63;16.40;;;;;;;5.22;53.57;99084.92;2135748;83;21263;-78
2021/03/23 08:06:45;;;;;;;37.33;15.90;;;;;;;5.13;53.94;99097.08;2136103;83;21522;-79
2021/03/23 08:09:46;;;;;;;30.23;16.97;;;;;;;4.97;53.88;99085.28;2136287;83;21510;-79
2021/03/23 08:12:47;;;;;;;107.87;21.37;;;;;;;4.90;54.30;99100.51;2136167;83;21249;-78
2021/03/23 08:15:48;;;;;;;32.27;16.77;;;;;;;5.03;54.81;99098.45;2135595;83;21308;-79
2021/03/23 08:18:51;;;;;;;25.57;13.87;;;;;;;5.16;54.03;99095.02;2135682;83;21278;-78
2021/03/23 08:21:54;;;;;;;29.97;14.30;;;;;;;5.20;52.67;99104.28;2136139;83;21292;-79
2021/03/23 08:24:56;;;;;;;28.63;13.70;;;;;;;5.23;53.70;99091.86;2136426;83;21319;-79
2021/03/23 08:27:58;;;;;;;23.27;12.33;;;;;;;5.32;52.31;99096.97;2135701;83;21287;-79
2021/03/23 08:30:59;;;;;;;30.17;14.20;;;;;;;5.56;51.48;99098.26;2135485;83;21252;-81
2021/03/23 08:34:00;;;;;;;25.10;12.37;;;;;;;5.81;52.08;99091.34;2134583;83;21581;-80
2021/03/23 08:37:01;;;;;;;33.27;13.13;;;;;;;6.12;50.41;99090.32;2135224;83;21275;-79
2021/03/23 08:40:03;;;;;;;18.97;10.40;;;;;;;6.45;48.47;99087.94;2135441;83;21255;-80
2021/03/23 08:43:04;;;;;;;18.70;9.73;;;;;;;6.45;48.47;99087.94;2135331;83;21260;-78
2021/03/23 08:46:05;;;;;;;19.13;9.63;;;;;;;6.37;46.85;99097.19;2135314;83;21373;-79
2021/03/23 08:49:07;;;;;;;15.37;8.87;;;;;;;6.59;49.55;99093.56;2136626;83;21158;-80
2021/03/23 08:52:08;;;;;;;22.93;10.97;;;;;;;6.59;49.55;99093.56;2134841;83;21268;-75
2021/03/23 08:55:09;;;;;;;31.10;13.77;;;;;;;6.67;50.00;99082.59;2132652;83;21288;-78
2021/03/23 08:58:11;;;;;;;22.43;11.17;;;;;;;6.67;50.00;99082.59;2133459;83;21338;-76
2021/03/23 09:01:13;;;;;;;16.20;10.23;;;;;;;6.85;49.91;99077.08;2133849;83;21268;-77
2021/03/23 09:04:15;;;;;;;24.63;11.77;;;;;;;7.09;48.80;99089.94;2132287;83;21985;-77
2021/03/23 09:07:16;;;;;;;22.70;12.03;;;;;;;7.16;49.70;99087.10;2132178;83;21129;-76
2021/03/23 09:10:17;;;;;;;19.07;9.40;;;;;;;7.16;49.84;99074.13;2134219;83;21515;-76
2021/03/23 09:13:18;;;;;;;12.23;7.83;;;;;;;7.22;48.48;99075.18;2133071;83;21264;-76
2021/03/23 09:16:20;;;;;;;13.93;8.03;;;;;;;7.34;47.46;99080.72;2133546;83;21662;-77
2021/03/23 09:19:21;;;;;;;16.63;8.20;;;;;;;7.60;47.98;99085.76;2133616;83;21252;-77
2021/03/23 09:22:23;;;;;;;16.23;9.10;;;;;;;7.49;48.20;99087.18;2134276;83;21570;-77
2021/03/23 09:25:24;;;;;;;13.10;8.27;;;;;;;7.50;48.65;99092.42;2133414;83;21264;-77
2021/03/23 09:28:25;;;;;;;16.20;9.10;;;;;;;7.37;49.00;99100.70;2133969;83;21141;-77
2021/03/23 09:31:29;;;;;;;19.67;10.40;;;;;;;7.42;48.07;99091.33;2133287;83;21272;-78
2021/03/23 09:34:29;;;;;;;10.33;8.23;;;;;;;7.64;48.34;99104.06;2132732;83;21337;-79
2021/03/23 09:37:32;;;;;;;13.07;8.43;;;;;;;7.71;47.97;99092.55;2133727;83;21304;-78
2021/03/23 09:40:33;;;;;;;109.50;11.73;;;;;;;7.81;48.22;99088.09;2133787;83;22217;-78
2021/03/23 09:43:35;;;;;;;18.20;8.87;;;;;;;7.86;47.68;99092.98;2134695;83;21256;-78
2021/03/23 09:46:37;;;;;;;12.20;7.27;;;;;;;7.85;47.86;99074.33;2134753;83;21463;-77
2021/03/23 09:49:38;;;;;;;12.73;7.57;;;;;;;7.95;48.04;99077.63;2134860;83;21467;-77
2021/03/23 09:52:39;;;;;;;11.43;7.50;;;;;;;8.02;47.68;99066.55;2133419;83;21252;-78
2021/03/23 09:55:41;;;;;;;17.77;9.17;;;;;;;8.22;47.36;99074.42;2130355;83;21254;-78
2021/03/23 09:58:42;;;;;;;69.97;8.30;;;;;;;8.13;47.67;99066.40;2131201;83;21268;-78
2021/03/23 10:01:43;;;;;;;18.73;6.93;;;;;;;8.26;47.00;99086.66;2131031;83;21123;-77
2021/03/23 10:04:45;;;;;;;9.97;6.20;;;;;;;8.31;47.37;99075.07;2130331;83;21272;-77
2021/03/23 10:07:48;;;;;;;13.33;7.27;;;;;;;7.81;47.14;99074.67;2131626;83;21576;-78
2021/03/23 10:10:49;;;;;;;16.57;7.90;;;;;;;7.80;47.54;99073.30;2131769;83;21288;-78
2021/03/23 10:13:50;;;;;;;11.97;7.27;;;;;;;7.94;48.04;99065.47;2131095;83;21306;-77
2021/03/23 10:16:51;;;;;;;14.50;7.53;;;;;;;8.10;47.81;99067.62;2131889;83;21534;-77
2021/03/23 10:19:53;;;;;;;15.70;8.17;;;;;;;8.35;47.27;99069.55;2131819;83;21587;-79
2021/03/23 10:22:54;;;;;;;13.60;6.77;;;;;;;8.63;46.76;99071.97;2132444;83;21157;-77
2021/03/23 10:25:55;;;;;;;15.83;7.93;;;;;;;8.61;46.29;99068.03;2131644;83;21243;-78
2021/03/23 10:28:56;;;;;;;11.33;7.50;;;;;;;8.56;46.00;99082.66;2130845;83;21276;-78
2021/03/23 10:31:57;;;;;;;15.77;8.23;;;;;;;8.79;46.27;99062.81;2131396;83;21112;-78
2021/03/23 10:34:59;;;;;;;14.23;7.80;;;;;;;8.96;45.21;99053.64;2130761;83;21296;-77
2021/03/23 10:38:00;;;;;;;15.80;7.83;;;;;;;9.34;45.00;99072.67;2131479;83;21226;-78
2021/03/23 10:41:01;;;;;;;95.53;11.37;;;;;;;9.41;44.90;99049.80;2129835;83;21277;-76
2021/03/23 10:44:02;;;;;;;17.20;8.93;;;;;;;9.45;44.77;99067.67;2130629;83;21124;-77
2021/03/23 10:47:03;;;;;;;12.63;9.33;;;;;;;9.40;43.94;99057.16;2129987;83;21287;-79
2021/03/23 10:50:05;;;;;;;48.03;13.23;;;;;;;9.21;44.56;99057.64;2130670;83;21290;-78
2021/03/23 10:53:06;;;;;;;20.00;12.47;;;;;;;9.15;43.80;99066.62;2133402;83;21288;-78
2021/03/23 10:56:07;;;;;;;13.47;9.13;;;;;;;9.09;44.92;99055.66;2135017;83;21309;-79
2021/03/23 10:59:08;;;;;;;18.10;8.10;;;;;;;9.30;45.48;99042.20;2134703;83;21639;-78
2021/03/23 11:02:09;;;;;;;12.20;7.73;;;;;;;9.53;44.69;99044.83;2134810;83;21117;-78
2021/03/23 11:05:12;;;;;;;14.57;8.13;;;;;;;9.18;43.13;99053.25;2134496;83;21455;-79
2021/03/23 11:08:13;;;;;;;15.50;8.63;;;;;;;9.24;43.88;99065.09;2135113;83;21345;-78
2021/03/23 11:11:14;;;;;;;12.43;9.00;;;;;;;9.64;43.81;99064.61;2135672;83;21276;-78
2021/03/23 11:14:16;;;;;;;17.43;10.13;;;;;;;9.65;43.40;99053.34;2135097;83;21299;-78
2021/03/23 11:17:17;;;;;;;13.20;8.43;;;;;;;9.60;43.98;99066.70;2135134;83;21137;-78
2021/03/23 11:20:18;;;;;;;16.13;9.27;;;;;;;9.57;44.42;99067.52;2135713;83;21897;-78
2021/03/23 11:23:20;;;;;;;22.70;10.27;;;;;;;9.81;44.32;99061.02;2135559;83;21268;-78
2021/03/23 11:26:22;;;;;;;21.43;9.17;;;;;;;9.93;44.77;99058.63;2134748;83;21287;-78
2021/03/23 11:29:23;;;;;;;15.63;9.20;;;;;;;9.89;44.10;99071.16;2134849;83;21268;-79
2021/03/23 11:32:24;;;;;;;20.00;9.77;;;;;;;10.16;43.28;99065.54;2136313;83;21230;-78
2021/03/23 11:35:25;;;;;;;44.23;11.30;;;;;;;10.56;43.31;99059.72;2135751;83;21260;-77
2021/03/23 11:38:26;;;;;;;14.40;8.43;;;;;;;10.59;42.94;99061.08;2134773;83;21859;-78
2021/03/23 11:41:28;;;;;;;18.07;10.70;;;;;;;10.42;43.12;99048.64;2135195;83;21125;-78
2021/03/23 11:44:31;;;;;;;19.73;7.80;;;;;;;10.64;42.86;99060.29;2134666;83;21323;-80
2021/03/23 11:47:38;;;;;;;14.63;7.77;;;;;;;10.55;42.88;99059.27;2135020;83;21141;-78
2021/03/23 11:50:36;;;;;;;21.05;10.72;;;;;;;10.28;41.72;99057.07;2134925;83;21479;-78
2021/03/23 11:53:37;;;;;;;14.83;7.67;;;;;;;9.85;43.06;99053.27;2133944;83;21268;-77
2021/03/23 11:56:38;;;;;;;14.83;8.17;;;;;;;9.64;43.30;99052.00;2131741;83;21528;-78
2021/03/23 11:59:40;;;;;;;58.80;10.33;;;;;;;9.61;43.61;99061.06;2131742;83;21268;-77
2021/03/23 12:02:41;;;;;;;12.23;7.67;;;;;;;9.49;44.10;99069.07;2130642;83;21584;-76
2021/03/23 12:05:42;;;;;;;18.37;9.37;;;;;;;9.68;43.77;99053.81;2130283;83;21141;-76
2021/03/23 12:08:43;;;;;;;93.80;10.57;;;;;;;9.85;43.77;99052.39;2131715;83;21267;-77
2021/03/23 12:11:45;;;;;;;15.27;7.93;;;;;;;9.89;44.08;99064.64;2131072;83;21247;-78
2021/03/23 12:14:46;;;;;;;18.70;9.77;;;;;;;9.85;43.53;99070.64;2131078;83;21293;-76
2021/03/23 12:17:47;;;;;;;31.23;17.07;;;;;;;9.84;44.25;99059.34;2130868;83;21603;-77
2021/03/23 12:20:54;;;;;;;26.17;7.63;;;;;;;9.99;44.43;99069.16;2130988;83;21267;-77
2021/03/23 12:23:52;;;;;;;13.63;9.10;;;;;;;10.00;43.64;99065.70;2130340;83;21268;-77
2021/03/23 12:26:53;;;;;;;10.57;7.23;;;;;;;10.00;44.24;99057.88;2131650;83;21652;-78
2021/03/23 12:29:54;;;;;;;14.40;7.80;;;;;;;9.97;43.76;99075.20;2131471;83;21288;-78
2021/03/23 12:32:56;;;;;;;12.33;8.97;;;;;;;9.87;44.15;99074.16;2129946;83;21287;-77
2021/03/23 12:35:57;;;;;;;12.57;8.67;;;;;;;9.93;44.40;99066.45;2129811;83;21625;-77
2021/03/23 12:38:58;;;;;;;16.53;7.50;;;;;;;10.05;44.82;99062.75;2131061;83;21244;-78
2021/03/23 12:42:00;;;;;;;16.07;8.80;;;;;;;10.04;44.26;99072.73;2129789;83;21264;-77
2021/03/23 12:45:01;;;;;;;15.17;8.47;;;;;;;9.93;43.55;99071.66;2129385;83;21239;-79
2021/03/23 12:48:03;;;;;;;20.33;8.27;;;;;;;9.95;44.80;99089.52;2129818;83;21630;-78
2021/03/23 12:51:04;;;;;;;19.10;8.33;;;;;;;9.93;44.31;99075.58;2131177;83;21246;-77
2021/03/23 12:54:06;;;;;;;203.07;18.03;;;;;;;9.95;44.68;99075.60;2132906;83;21455;-78
2021/03/23 12:57:07;;;;;;;19.17;9.53;;;;;;;9.96;44.98;99085.18;2134381;83;21311;-79
2021/03/23 13:00:08;;;;;;;27.00;14.17;;;;;;;9.91;44.65;99070.75;2134535;83;21295;-77
2021/03/23 13:03:09;;;;;;;21.33;8.93;;;;;;;9.81;44.74;99077.95;2133252;83;21296;-76
2021/03/23 13:06:10;;;;;;;20.23;9.23;;;;;;;9.82;44.73;99078.41;2132213;83;21259;-77
2021/03/23 13:09:12;;;;;;;17.40;10.70;;;;;;;9.68;45.35;99095.52;2131821;83;21268;-78
2021/03/23 13:12:13;;;;;;;14.37;8.10;;;;;;;9.55;45.97;99080.07;2132177;83;21570;-77
2021/03/23 13:15:14;;;;;;;19.27;9.93;;;;;;;9.54;46.09;99079.19;2133341;83;21287;-78
2021/03/23 13:18:15;;;;;;;20.80;10.10;;;;;;;9.69;46.47;99081.22;2134539;83;21256;-74
2021/03/23 13:21:17;;;;;;;24.13;10.87;;;;;;;9.84;45.37;99083.23;2135120;83;21272;-77
2021/03/23 13:24:18;;;;;;;20.93;9.97;;;;;;;10.01;45.30;99077.89;2135591;83;21291;-76
2021/03/23 13:27:19;;;;;;;13.40;8.30;;;;;;;10.38;44.89;99072.02;2134724;83;21538;-77
2021/03/23 13:30:24;;;;;;;14.50;8.90;;;;;;;10.43;43.95;99070.40;2135140;83;21267;-76
2021/03/23 13:33:29;;;;;;;12.13;7.50;;;;;;;10.35;44.72;99071.97;2134461;83;21851;-77
2021/03/23 13:36:30;;;;;;;14.07;8.30;;;;;;;10.38;44.19;99065.50;2134878;83;21280;-78
2021/03/23 13:39:31;;;;;;;12.53;7.67;;;;;;;10.17;44.29;99078.61;2135356;83;21338;-77
2021/03/23 13:42:33;;;;;;;14.37;7.13;;;;;;;9.87;44.33;99075.46;2135076;83;21245;-78
2021/03/23 13:45:35;;;;;;;16.23;7.67;;;;;;;9.60;44.71;99077.13;2135090;83;21280;-77
2021/03/23 13:48:36;;;;;;;20.97;7.70;;;;;;;9.49;46.09;99070.80;2135066;83;21156;-77
2021/03/23 13:51:37;;;;;;;12.43;8.00;;;;;;;9.48;46.06;99076.86;2134482;83;21602;-77
2021/03/23 13:54:38;;;;;;;14.20;8.23;;;;;;;9.42;45.11;99066.31;2135570;83;21268;-78
2021/03/23 13:57:40;;;;;;;14.83;7.80;;;;;;;9.93;45.52;99067.75;2135195;83;21169;-77
2021/03/23 14:00:41;;;;;;;39.47;13.07;;;;;;;9.86;45.22;99066.77;2135172;83;21826;-76
2021/03/23 14:03:42;;;;;;;64.43;34.10;;;;;;;9.75;45.44;99071.33;2133620;83;21276;-77
2021/03/23 14:06:44;;;;;;;13.60;9.30;;;;;;;9.76;45.86;99067.87;2133683;83;21269;-77
2021/03/23 14:09:45;;;;;;;20.03;10.73;;;;;;;9.74;45.52;99063.93;2133391;83;21293;-78